Impacts METAR Board
IDs:

KTPL - Temple/Miller Rgnl, TX, US

Updated at: 1300 UTC 20 Oct 2021
Potential Impact None Slight Moderate High
Time 20/01Z 20/02Z 20/03Z 20/04Z 20/05Z 20/06Z 20/07Z 20/08Z 20/09Z 20/10Z 20/11Z 20/12Z 20/13Z
Temp71 71 70 69 68 67 67 67 66 65 64 65 66
Dewpt59 59 60 60 61 62 62 63 64 63 64 65 66
Altim30.01 30.02 30.04 30.04 30.06 30.07 30.07 30.07 30.08 30.08 30.10 30.10 30.10
VIS10 10 10 10 10 10 10 10 10 10 10 10 10
CIG-- -- -- -- -- -- 14 10 7 9 7 7 31
CoverCLRCLRCLRCLRCLRCLROVCOVCOVCOVCOVCOVCOVC
FltCatVFRVFRVFRVFRVFRVFRMVFRMVFRIFRIFRIFRIFRVFR
WX--------------------------
WDir1201301401401501501601601701501900140
WSpd8 8 10 11 10 10 11 10 5 3 3 0 6
WGst-- -- -- -- -- -- -- -- -- -- -- -- --
Raw hourly METARs
KTPL 200051Z AUTO 12008KT 10SM CLR 22/15 A3001 RMK AO2 SLP156 T02170150
KTPL 200151Z AUTO 13008KT 10SM CLR 22/15 A3002 RMK AO2 SLP157 T02170150
KTPL 200251Z AUTO 14010KT 10SM CLR 21/16 A3004 RMK AO2 SLP161 T02110156 53011
KTPL 200351Z AUTO 14011KT 10SM CLR 21/16 A3004 RMK AO2 SLP165 T02060156
KTPL 200451Z AUTO 15010KT 10SM CLR 20/16 A3006 RMK AO2 SLP170 T02000161
KTPL 200551Z AUTO 15010KT 10SM CLR 19/17 A3007 RMK AO2 SLP172 T01940167 10233 20194 402780122 51010
KTPL 200651Z AUTO 16011KT 10SM OVC014 19/17 A3007 RMK AO2 SLP173 T01940167
KTPL 200751Z AUTO 16010KT 10SM BKN010 OVC014 19/17 A3007 RMK AO2 SLP174 T01940172
KTPL 200851Z AUTO 17005KT 10SM BKN007 OVC015 19/18 A3008 RMK AO2 SLP176 T01890178 51002
KTPL 200951Z AUTO 15003KT 10SM BKN009 OVC018 18/17 A3008 RMK AO2 SLP177 T01830172
KTPL 201051Z AUTO 19003KT 10SM OVC007 18/18 A3010 RMK AO2 SLP183 T01780178
KTPL 201151Z AUTO 00000KT 10SM OVC007 18/18 A3010 RMK AO2 SLP186 T01830183 10194 20178 52008
KTPL 201251Z AUTO 14006KT 10SM OVC031 19/19 A3010 RMK AO2 SLP183 T01890189